Time;durP1;ratioP1;P1;durP2;ratioP2;P2;SDS_P1;SDS_P2;PMS_P1;PMS_P2;Temp;Humidity;BMP_temperature;BMP_pressure;BME280_temperature;BME280_humidity;BME280_pressure;Samples;Min_cycle;Max_cycle;Signal;HPM_P1;HPM_P2
2021/05/08 03:33:09;;;;;;;5.67;5.17;;;;;;;7.10;55.94;99096.78;7020035;23;838753;-80
2021/05/08 03:36:30;;;;;;;5.73;5.13;;;;;;;6.95;56.87;99106.56;6849418;29;20217;-80
2021/05/08 03:39:51;;;;;;;5.27;4.53;;;;;;;7.07;56.33;99097.09;6849822;28;20216;-79
2021/05/08 03:43:12;;;;;;;5.50;5.00;;;;;;;6.99;56.04;99090.97;6849763;28;20227;-80
2021/05/08 03:46:33;;;;;;;5.97;5.37;;;;;;;7.04;56.31;99085.91;6850085;28;20239;-80
2021/05/08 03:49:55;;;;;;;5.57;4.93;;;;;;;7.00;56.39;99104.19;6849487;28;20207;-79
2021/05/08 03:53:16;;;;;;;7.30;5.70;;;;;;;6.49;56.62;99077.13;6851633;28;20271;-80
2021/05/08 03:56:37;;;;;;;6.40;5.80;;;;;;;6.56;57.10;99045.94;6853180;28;20578;-80
2021/05/08 03:59:58;;;;;;;5.57;5.07;;;;;;;6.62;57.35;99078.25;6863274;28;20221;-80
2021/05/08 04:03:20;;;;;;;5.70;5.20;;;;;;;6.91;56.82;99091.00;6887578;28;20227;-80
2021/05/08 04:06:42;;;;;;;6.90;6.20;;;;;;;6.71;57.54;99084.41;6873445;28;20227;-80
2021/05/08 04:10:03;;;;;;;6.30;5.67;;;;;;;6.87;56.99;99073.59;6875182;28;20204;-80
2021/05/08 04:13:24;;;;;;;7.30;6.47;;;;;;;6.66;57.10;99070.69;6872238;28;20294;-80
2021/05/08 04:16:46;;;;;;;6.00;5.20;;;;;;;7.01;56.57;99091.63;6871664;28;20212;-80
2021/05/08 04:20:08;;;;;;;6.17;5.63;;;;;;;6.89;56.65;99106.44;6872490;28;20625;-80
2021/05/08 04:23:30;;;;;;;7.57;5.80;;;;;;;7.06;56.84;99082.03;6871244;28;20595;-80
2021/05/08 04:26:51;;;;;;;6.50;5.90;;;;;;;6.68;57.59;99088.28;6873631;28;20251;-79
2021/05/08 04:30:14;;;;;;;6.10;5.37;;;;;;;6.89;57.71;99079.63;6874107;28;20210;-80
2021/05/08 04:33:35;;;;;;;5.90;5.40;;;;;;;6.92;57.24;99088.16;6874959;28;20718;-80
2021/05/08 04:36:56;;;;;;;5.70;5.10;;;;;;;6.70;57.87;99072.00;6873418;28;20214;-80
2021/05/08 04:40:18;;;;;;;6.67;6.07;;;;;;;6.66;57.57;99051.94;6872688;28;20211;-80
2021/05/08 04:43:39;;;;;;;5.80;5.23;;;;;;;7.12;57.18;99083.16;6872527;28;20232;-80
2021/05/08 04:47:00;;;;;;;5.80;5.30;;;;;;;7.09;57.32;99080.84;6870862;28;20571;-80
2021/05/08 04:50:22;;;;;;;6.43;5.83;;;;;;;7.26;56.82;99080.56;6869343;28;20306;-81
2021/05/08 04:53:43;;;;;;;7.10;6.17;;;;;;;6.94;56.68;99053.13;6869441;28;20236;-80
2021/05/08 04:57:06;;;;;;;7.87;5.97;;;;;;;7.45;56.72;99080.13;6869584;28;20238;-80
2021/05/08 05:00:27;;;;;;;6.00;5.40;;;;;;;7.53;56.12;99079.22;6870124;28;20564;-80
2021/05/08 05:03:48;;;;;;;6.53;5.83;;;;;;;7.64;56.38;99076.09;6869980;28;20215;-80
2021/05/08 05:07:09;;;;;;;7.83;5.77;;;;;;;7.68;56.81;99085.47;6869755;28;20212;-80
2021/05/08 05:10:30;;;;;;;6.33;5.73;;;;;;;7.78;56.33;99064.59;6869076;28;20223;-80
2021/05/08 05:13:53;;;;;;;6.77;6.07;;;;;;;7.97;56.30;99061.41;6869339;28;20276;-81
2021/05/08 05:17:14;;;;;;;6.60;5.90;;;;;;;8.37;56.31;99083.31;6860997;28;20228;-80
2021/05/08 05:20:36;;;;;;;5.97;5.47;;;;;;;8.69;54.87;99084.81;6869822;28;20229;-80
2021/05/08 05:23:57;;;;;;;6.03;5.43;;;;;;;9.04;54.21;99084.88;6871672;28;20196;-80
2021/05/08 05:27:18;;;;;;;5.97;5.33;;;;;;;9.45;53.33;99064.44;6874328;28;20200;-81
2021/05/08 05:30:40;;;;;;;5.87;5.37;;;;;;;9.71;52.46;99070.06;6871315;28;20280;-82
2021/05/08 05:34:02;;;;;;;6.53;5.50;;;;;;;9.85;52.23;99074.53;6859666;28;20229;-81
2021/05/08 05:37:23;;;;;;;5.73;5.17;;;;;;;10.16;52.11;99080.44;6875351;28;20201;-89
2021/05/08 05:40:44;;;;;;;5.97;5.47;;;;;;;10.63;50.92;99073.28;6884108;28;20743;-86
2021/05/08 05:44:06;;;;;;;5.90;5.30;;;;;;;10.78;50.13;99078.53;6877927;28;20202;-86
2021/05/08 05:47:31;;;;;;;6.97;5.07;;;;;;;10.97;50.10;99083.19;6877998;28;20208;-86
2021/05/08 05:50:53;;;;;;;6.13;5.53;;;;;;;11.02;50.47;99049.19;6879670;28;20325;-87
2021/05/08 05:54:14;;;;;;;16.13;5.33;;;;;;;11.50;49.37;99072.38;6879498;28;20242;-85
2021/05/08 05:57:35;;;;;;;7.47;6.63;;;;;;;11.73;48.48;99062.06;6878184;28;20213;-83
2021/05/08 06:00:56;;;;;;;7.97;7.17;;;;;;;12.05;47.82;99057.72;6877750;28;20339;-84
2021/05/08 06:04:18;;;;;;;7.90;7.07;;;;;;;12.68;47.71;99068.66;6877543;28;21512;-83
2021/05/08 06:07:40;;;;;;;6.67;6.07;;;;;;;13.37;45.99;99052.56;6878278;28;20213;-82
2021/05/08 06:11:01;;;;;;;4.83;4.33;;;;;;;14.14;41.00;99032.22;6875773;28;20288;-81
2021/05/08 06:14:24;;;;;;;5.97;4.40;;;;;;;14.44;40.67;99016.09;6875398;28;20233;-83
2021/05/08 06:17:46;;;;;;;5.43;4.40;;;;;;;14.89;40.66;99025.63;6855643;28;20205;-83
2021/05/08 06:21:08;;;;;;;4.90;4.50;;;;;;;15.37;39.23;99038.19;6849316;28;20234;-81
2021/05/08 06:24:29;;;;;;;4.30;3.90;;;;;;;15.10;39.58;99036.03;6866864;28;20214;-81
2021/05/08 06:27:50;;;;;;;5.80;4.27;;;;;;;15.17;38.72;99053.88;6868828;28;20208;-81
2021/05/08 06:31:11;;;;;;;4.17;3.77;;;;;;;13.76;41.27;99061.28;6851308;28;20237;-80
2021/05/08 06:34:32;;;;;;;4.60;4.20;;;;;;;14.80;40.09;99048.72;6874001;28;20231;-80
2021/05/08 06:37:54;;;;;;;4.37;3.60;;;;;;;15.84;38.18;99048.16;6877067;28;20221;-79
2021/05/08 06:41:16;;;;;;;3.97;3.33;;;;;;;17.14;35.34;99037.63;6872336;28;20748;-80
2021/05/08 06:44:37;;;;;;;5.57;3.93;;;;;;;17.66;33.13;99044.72;6869784;28;20228;-81
2021/05/08 06:47:58;;;;;;;7.27;3.17;;;;;;;18.03;32.52;99020.50;6862260;28;20205;-81
2021/05/08 06:51:20;;;;;;;3.77;3.40;;;;;;;18.00;32.08;99026.47;6877919;28;20229;-81
2021/05/08 06:54:42;;;;;;;4.77;3.23;;;;;;;17.72;32.97;99032.81;6876804;28;20233;-80
2021/05/08 06:58:03;;;;;;;3.53;3.07;;;;;;;18.31;30.93;99045.88;6877300;28;20661;-80
2021/05/08 07:01:24;;;;;;;5.03;3.00;;;;;;;18.58;31.05;99043.28;6878515;28;20231;-80
2021/05/08 07:04:46;;;;;;;4.93;3.03;;;;;;;18.84;29.76;99015.25;6878954;28;20231;-80
2021/05/08 07:08:08;;;;;;;3.20;2.90;;;;;;;18.03;31.77;99029.53;6889621;28;20201;-80
2021/05/08 07:11:31;;;;;;;3.60;3.27;;;;;;;17.90;30.95;99010.78;6877700;28;20621;-82
2021/05/08 07:14:52;;;;;;;6.70;3.20;;;;;;;17.89;30.88;99021.91;6877010;28;20303;-81
2021/05/08 07:18:14;;;;;;;4.67;3.33;;;;;;;17.54;32.22;99021.28;6878616;28;20213;-82
2021/05/08 07:21:35;;;;;;;3.40;2.80;;;;;;;18.35;30.54;98972.50;6883754;28;20232;-82
2021/05/08 07:24:56;;;;;;;4.73;3.10;;;;;;;18.40;30.24;98981.56;6861111;28;20951;-82
2021/05/08 07:28:20;;;;;;;6.37;2.23;;;;;;;19.60;28.18;98991.34;6875762;28;20256;-82
2021/05/08 07:31:41;;;;;;;2.80;2.43;;;;;;;18.63;29.39;98980.56;6877958;28;20387;-82
2021/05/08 07:35:02;;;;;;;2.83;2.30;;;;;;;19.11;29.03;98999.75;6880406;28;20252;-82
2021/05/08 07:38:23;;;;;;;2.90;2.60;;;;;;;19.91;26.60;98976.84;6882041;28;20209;-82
2021/05/08 07:41:44;;;;;;;2.80;2.40;;;;;;;18.76;28.34;99005.56;6877320;28;20237;-81
2021/05/08 07:45:07;;;;;;;2.60;2.33;;;;;;;19.51;28.28;98978.38;6877871;28;20201;-82
2021/05/08 07:48:29;;;;;;;2.30;2.10;;;;;;;19.76;28.52;98963.00;6879287;28;20210;-81
2021/05/08 07:51:50;;;;;;;2.63;2.43;;;;;;;20.26;27.02;98947.03;6873134;28;20325;-81
2021/05/08 07:55:12;;;;;;;4.47;2.53;;;;;;;20.60;27.38;98970.25;6897752;28;20216;-81
2021/05/08 07:58:33;;;;;;;3.20;2.40;;;;;;;19.88;27.78;98987.50;6903210;28;20199;-81
2021/05/08 08:01:55;;;;;;;2.77;2.40;;;;;;;20.36;27.23;98979.97;6877095;28;20237;-81
2021/05/08 08:05:16;;;;;;;3.13;2.43;;;;;;;19.44;27.28;98978.56;6885471;28;20210;-81
2021/05/08 08:08:38;;;;;;;3.50;2.70;;;;;;;20.39;28.08;98984.09;6877973;28;20197;-81
2021/05/08 08:11:59;;;;;;;2.43;2.23;;;;;;;20.30;27.40;98955.53;6873266;28;20254;-81
2021/05/08 08:15:22;;;;;;;2.90;2.47;;;;;;;20.34;27.76;98995.81;6885607;28;20255;-81
2021/05/08 08:18:44;;;;;;;2.57;2.37;;;;;;;20.78;26.86;98989.00;6882556;28;20213;-80
2021/05/08 08:22:05;;;;;;;2.70;2.50;;;;;;;20.46;27.60;99001.13;6877165;28;20257;-81
2021/05/08 08:25:27;;;;;;;2.77;2.53;;;;;;;20.33;27.21;98985.16;6867191;28;20201;-82
2021/05/08 08:28:49;;;;;;;3.37;2.70;;;;;;;20.76;27.09;98971.97;6874294;28;20210;-81
2021/05/08 08:32:10;;;;;;;3.80;2.13;;;;;;;20.62;27.56;98975.47;6871793;28;20240;-82
2021/05/08 08:35:32;;;;;;;4.53;4.13;;;;;;;21.22;25.73;98992.25;6888445;28;20272;-81
2021/05/08 08:38:53;;;;;;;2.50;2.30;;;;;;;20.69;27.65;98998.00;6890214;28;20212;-81
2021/05/08 08:42:14;;;;;;;2.67;2.13;;;;;;;21.16;26.97;98987.84;6854712;28;20234;-81
2021/05/08 08:45:35;;;;;;;2.80;2.23;;;;;;;21.38;25.90;98976.41;6881963;28;20214;-82
2021/05/08 08:48:57;;;;;;;2.30;2.10;;;;;;;21.58;25.24;98989.31;6866255;28;20212;-82
2021/05/08 08:52:19;;;;;;;3.10;2.00;;;;;;;22.41;24.10;98986.94;6877952;28;20222;-81
2021/05/08 08:55:42;;;;;;;2.00;1.90;;;;;;;21.07;24.45;98979.31;6900093;28;20246;-81
2021/05/08 08:59:12;;;;;;;2.67;2.10;;;;;;;20.90;24.82;98989.63;6889408;28;20255;-81
2021/05/08 09:02:33;;;;;;;2.70;2.47;;;;;;;21.35;24.74;98982.41;6882345;28;20695;-81
2021/05/08 09:05:56;;;;;;;2.10;2.00;;;;;;;20.72;24.57;98940.75;6873718;28;20217;-83
2021/05/08 09:09:18;;;;;;;2.67;1.90;;;;;;;21.86;24.91;98966.88;6872754;28;20216;-82
2021/05/08 09:12:45;;;;;;;2.10;1.80;;;;;;;21.71;24.37;98981.41;6874811;28;20228;-82
2021/05/08 09:16:08;;;;;;;4.40;2.13;;;;;;;20.85;25.76;98967.66;6880297;28;20262;-82
2021/05/08 09:19:29;;;;;;;2.87;2.00;;;;;;;20.67;24.93;98963.44;6880558;28;20221;-81
2021/05/08 09:22:51;;;;;;;2.07;1.90;;;;;;;21.60;24.60;98960.50;6873507;28;20238;-81
2021/05/08 09:26:14;;;;;;;3.40;2.13;;;;;;;21.60;24.63;98910.31;6874444;28;20210;-84
2021/05/08 09:29:35;;;;;;;2.63;2.10;;;;;;;21.88;24.65;98953.69;6873291;28;20294;-82
2021/05/08 09:33:01;;;;;;;2.57;1.83;;;;;;;22.28;25.33;98949.03;6872860;28;20233;-80
2021/05/08 09:36:22;;;;;;;2.70;1.73;;;;;;;21.83;24.03;98932.56;6882053;28;20209;-80
2021/05/08 09:39:43;;;;;;;2.23;1.77;;;;;;;21.61;23.41;98931.16;6873108;28;20212;-83
2021/05/08 09:43:10;;;;;;;1.87;1.70;;;;;;;21.08;26.12;98935.13;6873129;28;20236;-82
2021/05/08 09:46:33;;;;;;;2.63;1.70;;;;;;;21.07;25.52;98934.59;6886431;28;20380;-82
2021/05/08 09:49:57;;;;;;;2.13;1.90;;;;;;;20.52;24.69;98910.47;6888518;28;20212;-82
2021/05/08 09:53:25;;;;;;;2.03;1.80;;;;;;;20.87;25.87;98934.50;6873820;28;20251;-83
2021/05/08 09:56:47;;;;;;;3.23;2.00;;;;;;;21.19;26.11;98917.63;6871478;28;20631;-80
2021/05/08 10:00:38;;;;;;;3.23;2.60;;;;;;;21.35;25.29;98927.56;6871056;28;20201;-80
2021/05/08 10:04:00;;;;;;;5.77;3.90;;;;;;;21.35;25.75;98913.00;6865997;28;20207;-80
2021/05/08 10:07:22;;;;;;;7.23;6.00;;;;;;;20.38;26.05;98925.75;6881882;28;20674;-81
2021/05/08 10:10:43;;;;;;;39.87;35.63;;;;;;;20.78;25.79;98910.31;6869038;28;20230;-81
2021/05/08 10:14:05;;;;;;;22.20;20.00;;;;;;;21.78;25.47;98910.59;6870705;28;20298;-81
2021/05/08 10:17:28;;;;;;;3.47;2.47;;;;;;;21.98;23.69;98910.63;6854870;28;20204;-80
2021/05/08 10:20:50;;;;;;;3.63;2.80;;;;;;;22.34;24.47;98897.63;6870306;28;20235;-84
2021/05/08 10:24:12;;;;;;;2.00;1.80;;;;;;;21.80;25.42;98905.69;6878282;28;20217;-83
2021/05/08 10:27:33;;;;;;;2.73;1.90;;;;;;;22.75;24.07;98889.03;6892911;28;20202;-83
2021/05/08 10:30:54;;;;;;;1.77;1.67;;;;;;;22.47;24.44;98895.16;6875643;28;20238;-83
2021/05/08 10:34:16;;;;;;;3.77;2.40;;;;;;;23.81;23.45;98875.44;6903346;28;20225;-83
2021/05/08 10:37:38;;;;;;;3.90;1.97;;;;;;;23.80;23.17;98879.31;6890943;28;20201;-82
2021/05/08 10:41:02;;;;;;;2.40;2.20;;;;;;;22.27;23.13;98870.47;6876282;28;20239;-82
2021/05/08 10:44:43;;;;;;;2.37;2.00;;;;;;;22.51;23.67;98854.19;6889931;28;20306;-83
2021/05/08 10:48:09;;;;;;;2.20;2.00;;;;;;;21.64;23.22;98851.00;6870761;28;20217;-79
2021/05/08 10:51:55;;;;;;;1.93;1.60;;;;;;;23.37;23.66;98860.94;6876662;28;20251;-81
2021/05/08 10:55:22;;;;;;;2.03;1.93;;;;;;;23.46;22.90;98853.69;6872013;28;20304;-81
2021/05/08 10:58:43;;;;;;;2.93;2.07;;;;;;;23.51;22.27;98854.50;6877309;28;20199;-81
2021/05/08 11:02:05;;;;;;;2.93;1.73;;;;;;;23.15;24.54;98839.31;6897185;28;20240;-81
2021/05/08 11:05:27;;;;;;;2.50;1.77;;;;;;;23.48;22.70;98844.03;6877040;28;20211;-79
2021/05/08 11:08:50;;;;;;;3.20;1.90;;;;;;;23.40;22.08;98833.66;6875916;28;20211;-79
2021/05/08 11:12:11;;;;;;;1.73;1.63;;;;;;;23.08;22.35;98825.03;6872857;28;20221;-79
2021/05/08 11:16:05;;;;;;;2.07;1.87;;;;;;;23.30;20.97;98805.41;6874790;28;20242;-79
2021/05/08 11:19:27;;;;;;;2.93;1.97;;;;;;;23.93;22.94;98815.31;6865154;28;20240;-80
2021/05/08 11:22:55;;;;;;;2.07;1.60;;;;;;;23.87;22.61;98798.03;6884087;28;20266;-80
2021/05/08 11:26:35;;;;;;;2.37;2.00;;;;;;;23.31;23.56;98812.53;6879475;28;20222;-81
2021/05/08 11:30:10;;;;;;;2.70;1.67;;;;;;;23.83;22.79;98815.41;6874907;28;20224;-80
2021/05/08 11:33:31;;;;;;;1.90;1.70;;;;;;;23.87;22.39;98800.78;6879508;28;20259;-80
2021/05/08 11:36:54;;;;;;;2.67;1.83;;;;;;;23.35;22.69;98791.56;6876562;28;20209;-81
2021/05/08 11:40:30;;;;;;;2.40;1.60;;;;;;;24.00;23.40;98789.06;6876036;28;20198;-80
2021/05/08 11:43:55;;;;;;;2.37;1.87;;;;;;;24.62;21.29;98807.38;6892095;28;20230;-81
2021/05/08 11:47:28;;;;;;;3.30;1.87;;;;;;;24.60;20.75;98801.34;6885844;28;20213;-80
2021/05/08 11:50:56;;;;;;;2.60;1.93;;;;;;;24.44;20.86;98783.31;6883297;28;20232;-81
2021/05/08 11:54:17;;;;;;;2.13;1.93;;;;;;;24.85;21.27;98777.00;6901387;28;20233;-81
2021/05/08 11:57:41;;;;;;;2.00;1.80;;;;;;;24.16;20.49;98757.50;6901470;28;20207;-80
2021/05/08 12:01:03;;;;;;;2.90;1.60;;;;;;;24.60;20.97;98758.03;6882811;28;20229;-81
2021/05/08 12:04:24;;;;;;;1.33;1.23;;;;;;;25.28;19.67;98745.44;6884744;28;20216;-81
2021/05/08 12:07:45;;;;;;;2.63;1.80;;;;;;;24.77;19.84;98763.06;6872127;28;20206;-81
2021/05/08 12:11:15;;;;;;;1.90;1.47;;;;;;;24.53;20.91;98729.16;6884909;28;20231;-82
2021/05/08 12:14:41;;;;;;;1.97;1.77;;;;;;;24.28;21.26;98741.34;6893681;28;20263;-81
2021/05/08 12:18:04;;;;;;;3.13;1.90;;;;;;;23.55;21.60;98756.44;6888964;28;20202;-81
2021/05/08 12:21:25;;;;;;;2.27;1.93;;;;;;;23.87;22.58;98742.94;6846843;28;20235;-81
2021/05/08 12:24:50;;;;;;;2.00;1.90;;;;;;;24.02;21.26;98737.25;6857653;28;20226;-80
2021/05/08 12:28:15;;;;;;;1.90;1.60;;;;;;;24.46;22.05;98731.47;6875571;28;20204;-80
2021/05/08 12:31:36;;;;;;;1.90;1.80;;;;;;;24.28;21.79;98735.00;6875003;28;20244;-80
2021/05/08 12:34:58;;;;;;;2.93;2.00;;;;;;;24.11;21.78;98724.47;6874168;28;20767;-81
2021/05/08 12:38:26;;;;;;;2.67;1.90;;;;;;;23.63;22.90;98711.78;6880906;28;20264;-81
2021/05/08 12:41:53;;;;;;;2.00;1.80;;;;;;;23.91;23.00;98727.50;6872611;28;20235;-81
2021/05/08 12:45:15;;;;;;;2.70;1.53;;;;;;;24.25;21.16;98717.13;6867802;28;20232;-81
2021/05/08 12:48:39;;;;;;;2.00;1.80;;;;;;;24.20;22.15;98692.38;6873408;28;20205;-81
2021/05/08 12:52:22;;;;;;;2.63;1.83;;;;;;;24.37;21.76;98711.22;6873334;28;20727;-81
2021/05/08 12:55:44;;;;;;;1.80;1.70;;;;;;;24.40;22.38;98702.31;6872121;28;20657;-80
2021/05/08 12:59:05;;;;;;;3.10;1.77;;;;;;;23.75;22.24;98701.19;6882643;28;20232;-80
2021/05/08 13:02:28;;;;;;;1.53;1.43;;;;;;;25.13;21.24;98692.44;6887408;28;20278;-80
2021/05/08 13:05:49;;;;;;;1.77;1.67;;;;;;;25.45;20.94;98687.75;6872198;28;20211;-80
2021/05/08 13:09:21;;;;;;;2.53;1.80;;;;;;;24.55;20.72;98691.09;7036411;27;20868;-73
2021/05/08 13:12:43;;;;;;;1.80;1.70;;;;;;;24.57;21.70;98678.69;7009303;28;20224;-73
2021/05/08 13:16:05;;;;;;;3.20;1.90;;;;;;;24.57;22.29;98680.63;7006825;28;20214;-73
2021/05/08 13:19:27;;;;;;;1.90;1.80;;;;;;;25.06;21.19;98679.00;7023862;28;20666;-72
2021/05/08 13:22:48;;;;;;;2.20;1.70;;;;;;;24.18;22.38;98669.84;7002188;28;20239;-73
2021/05/08 13:26:10;;;;;;;2.37;1.53;;;;;;;24.10;22.82;98658.66;7007216;28;20560;-73
2021/05/08 13:29:32;;;;;;;2.00;1.70;;;;;;;24.23;23.08;98667.03;7023388;28;20205;-74
2021/05/08 13:32:54;;;;;;;2.53;1.77;;;;;;;23.89;23.77;98619.53;7014273;28;20671;-74
2021/05/08 13:36:19;;;;;;;1.87;1.70;;;;;;;24.96;22.40;98635.03;7013819;28;20646;-74
2021/05/08 13:39:40;;;;;;;1.70;1.60;;;;;;;25.07;22.52;98638.44;7023198;28;20235;-73
2021/05/08 13:43:03;;;;;;;2.10;1.90;;;;;;;24.84;22.05;98636.63;7024168;28;20217;-75
2021/05/08 13:46:24;;;;;;;1.90;1.70;;;;;;;24.82;21.43;98633.34;7017547;28;20221;-75
2021/05/08 13:49:45;;;;;;;1.70;1.60;;;;;;;25.71;21.38;98619.84;7015881;28;20212;-75
2021/05/08 13:53:06;;;;;;;1.70;1.60;;;;;;;25.24;21.43;98616.66;7011268;28;20609;-75
2021/05/08 13:56:27;;;;;;;3.17;1.80;;;;;;;25.75;21.17;98597.94;7023259;28;20213;-75
2021/05/08 13:59:49;;;;;;;2.50;1.60;;;;;;;24.69;22.76;98595.50;7006434;28;20218;-74
2021/05/08 14:03:11;;;;;;;1.60;1.50;;;;;;;24.88;23.37;98596.28;6995654;28;20240;-74
2021/05/08 14:06:32;;;;;;;3.10;2.80;;;;;;;25.45;21.83;98584.75;7011620;28;20229;-74
2021/05/08 14:09:54;;;;;;;2.07;1.77;;;;;;;25.30;21.47;98579.56;6996320;28;20208;-74
2021/05/08 14:13:15;;;;;;;3.77;3.20;;;;;;;25.42;21.58;98575.16;6998790;28;20275;-75
2021/05/08 14:16:37;;;;;;;6.17;2.83;;;;;;;24.87;22.22;98567.06;7011668;28;20204;-75
2021/05/08 14:19:58;;;;;;;8.37;5.50;;;;;;;24.08;22.66;98568.03;6969104;28;20666;-72
2021/05/08 14:23:19;;;;;;;1.70;1.60;;;;;;;24.15;22.58;98557.47;6988110;28;20214;-74
2021/05/08 14:26:41;;;;;;;3.07;1.90;;;;;;;23.86;23.33;98558.69;6982728;28;20227;-75
2021/05/08 14:30:03;;;;;;;2.33;1.80;;;;;;;25.15;22.09;98544.75;6976869;28;20264;-74
2021/05/08 14:33:25;;;;;;;1.63;1.53;;;;;;;25.48;21.15;98548.28;6994173;28;20210;-73
2021/05/08 14:36:46;;;;;;;1.67;1.57;;;;;;;25.65;21.98;98542.94;6990402;28;20205;-74
2021/05/08 14:40:09;;;;;;;1.30;1.20;;;;;;;25.76;21.24;98530.53;6996809;28;20280;-74
2021/05/08 14:43:30;;;;;;;2.07;1.60;;;;;;;25.85;21.58;98526.75;6992255;28;20211;-74
2021/05/08 14:46:51;;;;;;;1.77;1.50;;;;;;;25.45;22.39;98529.53;6986780;28;20222;-72
2021/05/08 14:50:14;;;;;;;1.63;1.53;;;;;;;25.29;22.13;98515.25;6989383;28;20576;-72
2021/05/08 14:53:35;;;;;;;1.57;1.47;;;;;;;25.31;22.05;98523.22;7002092;28;20209;-72
2021/05/08 14:56:57;;;;;;;1.50;1.40;;;;;;;25.79;21.91;98511.38;7002173;28;20206;-71
2021/05/08 15:00:18;;;;;;;2.10;1.80;;;;;;;26.09;23.15;98507.16;6991424;28;20211;-72
2021/05/08 15:03:39;;;;;;;1.60;1.50;;;;;;;25.32;22.66;98511.06;6975419;28;20591;-72
2021/05/08 15:07:02;;;;;;;1.30;1.20;;;;;;;24.65;23.45;98509.81;7001385;28;20234;-73
2021/05/08 15:10:26;;;;;;;1.80;1.70;;;;;;;25.53;23.23;98504.78;7001962;28;20600;-73
2021/05/08 15:13:47;;;;;;;3.33;1.90;;;;;;;25.12;22.23;98498.44;6977328;28;20692;-73
2021/05/08 15:17:09;;;;;;;1.43;1.33;;;;;;;25.50;22.83;98482.50;7019889;28;20278;-70
2021/05/08 15:20:30;;;;;;;1.60;1.40;;;;;;;24.95;22.86;98478.13;7021524;28;20204;-72
2021/05/08 15:23:52;;;;;;;2.20;1.80;;;;;;;25.25;22.44;98478.34;6997133;28;20213;-72
2021/05/08 15:27:13;;;;;;;1.40;1.30;;;;;;;25.11;23.31;98465.63;6986409;28;20223;-72
2021/05/08 15:30:35;;;;;;;2.07;1.60;;;;;;;25.56;23.34;98473.81;6972586;28;20215;-72
2021/05/08 15:33:57;;;;;;;1.60;1.50;;;;;;;25.72;23.38;98469.56;6990197;28;20206;-73
2021/05/08 15:37:18;;;;;;;2.00;1.73;;;;;;;25.84;23.46;98474.56;6986373;28;20620;-73
2021/05/08 15:40:41;;;;;;;2.67;1.63;;;;;;;24.93;24.67;98466.53;6984980;28;20730;-73
2021/05/08 15:44:02;;;;;;;8.43;1.80;;;;;;;24.74;24.37;98463.06;6991030;28;20646;-72
2021/05/08 15:47:23;;;;;;;2.03;1.93;;;;;;;24.04;25.45;98462.34;6995308;28;20224;-72
2021/05/08 15:50:44;;;;;;;1.77;1.67;;;;;;;24.68;24.80;98462.34;6991717;28;20232;-72
2021/05/08 15:54:06;;;;;;;1.73;1.50;;;;;;;24.89;24.40;98460.03;6994457;28;20257;-71
2021/05/08 15:57:29;;;;;;;1.80;1.70;;;;;;;24.85;23.91;98468.09;7002998;28;20616;-71
2021/05/08 16:00:50;;;;;;;1.57;1.47;;;;;;;24.94;24.42;98462.66;7002852;28;20213;-73
2021/05/08 16:04:12;;;;;;;1.90;1.60;;;;;;;24.98;24.20;98456.25;7003337;28;20229;-72
2021/05/08 16:07:33;;;;;;;2.37;1.50;;;;;;;25.52;24.83;98452.63;7003389;28;20229;-73
2021/05/08 16:10:55;;;;;;;2.40;1.53;;;;;;;25.34;24.23;98456.34;6989784;28;20210;-72
2021/05/08 16:14:17;;;;;;;2.20;1.57;;;;;;;25.39;24.03;98454.31;6980275;28;20209;-74
2021/05/08 16:17:38;;;;;;;2.93;1.53;;;;;;;25.08;23.43;98444.97;6968058;28;20198;-75
2021/05/08 16:20:59;;;;;;;2.33;1.53;;;;;;;25.45;23.80;98439.28;6994095;28;20212;-76
2021/05/08 16:24:22;;;;;;;1.90;1.70;;;;;;;25.78;23.54;98442.66;7000401;28;20667;-75
2021/05/08 16:27:43;;;;;;;5.30;1.77;;;;;;;25.43;24.10;98432.44;7003635;28;20727;-75
2021/05/08 16:31:05;;;;;;;2.13;1.70;;;;;;;25.38;24.68;98425.06;7002047;28;20216;-74
2021/05/08 16:34:26;;;;;;;1.73;1.63;;;;;;;25.68;24.37;98431.84;6963566;28;20213;-76
2021/05/08 16:37:49;;;;;;;2.07;1.70;;;;;;;25.57;24.83;98420.22;7001624;28;20201;-75
2021/05/08 16:41:10;;;;;;;1.80;1.70;;;;;;;25.49;24.85;98429.22;7001521;28;20209;-75
2021/05/08 16:44:34;;;;;;;2.20;1.80;;;;;;;25.60;24.86;98414.06;6984694;28;20207;-73
2021/05/08 16:47:56;;;;;;;1.90;1.80;;;;;;;25.54;25.39;98422.78;6986447;28;20258;-73
2021/05/08 16:51:17;;;;;;;1.60;1.50;;;;;;;25.41;24.61;98407.06;6974992;28;20554;-72
2021/05/08 16:54:39;;;;;;;1.60;1.50;;;;;;;25.37;25.09;98404.09;6973403;28;20206;-71
2021/05/08 16:58:01;;;;;;;1.80;1.70;;;;;;;25.66;24.24;98420.31;6982817;28;20556;-71
2021/05/08 17:01:23;;;;;;;1.80;1.70;;;;;;;25.83;24.44;98410.19;6984213;28;20199;-72
2021/05/08 17:04:47;;;;;;;1.70;1.60;;;;;;;25.80;24.33;98421.06;6972638;28;20704;-71
2021/05/08 17:08:08;;;;;;;2.60;1.70;;;;;;;25.82;24.25;98407.75;6970278;28;20225;-72
2021/05/08 17:11:29;;;;;;;1.60;1.50;;;;;;;25.42;25.02;98414.22;7008793;28;20743;-73
2021/05/08 17:14:51;;;;;;;2.00;1.60;;;;;;;25.62;24.20;98416.53;7001077;28;20699;-71
2021/05/08 17:18:13;;;;;;;2.30;1.63;;;;;;;25.20;25.06;98398.38;6993173;28;20213;-71
2021/05/08 17:21:38;;;;;;;1.60;1.50;;;;;;;25.15;25.67;98408.72;6974189;28;20206;-72
2021/05/08 17:24:59;;;;;;;1.60;1.50;;;;;;;25.33;25.73;98394.00;6973851;28;20207;-71
2021/05/08 17:28:21;;;;;;;2.30;1.50;;;;;;;25.15;25.90;98404.03;6987068;28;20713;-72
2021/05/08 17:31:42;;;;;;;2.00;1.80;;;;;;;25.11;25.86;98400.25;6985244;28;20583;-72
2021/05/08 17:35:03;;;;;;;1.63;1.53;;;;;;;25.26;26.42;98396.38;6998772;28;20258;-72
2021/05/08 17:38:25;;;;;;;2.20;2.00;;;;;;;25.21;26.41;98394.50;6983070;28;20686;-71
2021/05/08 17:41:46;;;;;;;1.93;1.50;;;;;;;25.09;26.31;98394.22;6964834;28;20215;-72
2021/05/08 17:45:09;;;;;;;2.53;1.90;;;;;;;25.02;27.53;98402.06;6975855;28;20218;-72
2021/05/08 17:48:31;;;;;;;2.20;2.00;;;;;;;24.94;27.28;98405.56;6973729;28;20283;-72
2021/05/08 17:51:52;;;;;;;1.93;1.83;;;;;;;24.84;27.91;98405.75;6993678;28;20217;-73
2021/05/08 17:55:14;;;;;;;3.57;2.10;;;;;;;24.76;28.41;98406.47;7003177;28;20235;-73
2021/05/08 17:58:36;;;;;;;1.90;1.80;;;;;;;24.70;27.98;98399.44;7005691;28;20210;-71
2021/05/08 18:01:58;;;;;;;2.30;2.07;;;;;;;24.64;28.29;98395.16;7004944;28;20206;-70
2021/05/08 18:05:19;;;;;;;2.50;1.70;;;;;;;24.59;28.08;98395.25;7002796;28;20227;-72
2021/05/08 18:08:40;;;;;;;2.97;1.87;;;;;;;24.24;29.27;98395.88;7005308;28;20231;-72
2021/05/08 18:12:03;;;;;;;2.33;1.90;;;;;;;24.23;29.26;98396.16;7005045;28;20220;-72
2021/05/08 18:15:25;;;;;;;2.70;2.10;;;;;;;24.06;29.94;98393.97;7004467;28;20209;-71
2021/05/08 18:18:47;;;;;;;4.23;2.30;;;;;;;23.80;31.27;98389.16;7004297;28;20237;-72
2021/05/08 18:22:09;;;;;;;3.30;2.60;;;;;;;23.88;31.80;98402.28;6987470;28;20203;-71
2021/05/08 18:25:30;;;;;;;4.27;2.70;;;;;;;23.54;32.65;98402.50;6977622;28;20213;-72
2021/05/08 18:28:52;;;;;;;4.33;3.50;;;;;;;23.14;33.97;98400.28;6983217;28;20227;-71
2021/05/08 18:32:13;;;;;;;4.30;2.93;;;;;;;23.02;34.00;98405.41;7004529;28;20692;-72
2021/05/08 18:35:35;;;;;;;4.27;3.20;;;;;;;22.61;34.59;98408.94;7002097;28;20256;-72
2021/05/08 18:38:56;;;;;;;3.50;2.70;;;;;;;22.39;35.19;98417.66;7004281;28;20215;-71
2021/05/08 18:42:17;;;;;;;3.30;2.83;;;;;;;21.91;36.21;98415.09;7004346;28;20212;-72
2021/05/08 18:45:39;;;;;;;5.03;3.30;;;;;;;21.23;38.08;98412.53;7006110;28;20231;-72
2021/05/08 18:49:01;;;;;;;6.43;4.33;;;;;;;21.13;38.41;98422.41;7005810;28;20231;-71
2021/05/08 18:52:22;;;;;;;7.33;4.40;;;;;;;20.83;39.20;98414.31;7002300;28;20209;-72
2021/05/08 18:55:43;;;;;;;5.43;3.80;;;;;;;20.56;40.07;98421.25;6997394;28;20233;-72
2021/05/08 18:59:05;;;;;;;3.93;3.50;;;;;;;20.25;40.69;98427.91;6977680;28;20444;-72
2021/05/08 19:02:27;;;;;;;5.40;3.97;;;;;;;19.99;41.61;98428.16;6995929;28;20267;-72
2021/05/08 19:05:50;;;;;;;4.17;3.50;;;;;;;20.03;41.59;98429.22;7003946;28;20223;-73
2021/05/08 19:09:11;;;;;;;4.63;3.40;;;;;;;20.14;41.21;98429.00;7003727;28;20237;-73
2021/05/08 19:12:33;;;;;;;4.60;3.73;;;;;;;19.46;42.95;98436.88;7003829;28;20210;-72
2021/05/08 19:15:54;;;;;;;7.10;3.80;;;;;;;19.08;43.61;98437.28;6996446;28;20236;-72
2021/05/08 19:19:18;;;;;;;6.63;3.40;;;;;;;19.42;43.04;98430.28;6984314;28;20229;-72
2021/05/08 19:22:40;;;;;;;3.90;3.50;;;;;;;19.00;43.65;98435.06;7002256;28;20807;-72
2021/05/08 19:26:01;;;;;;;8.93;3.83;;;;;;;19.00;43.82;98440.53;6975473;28;20212;-72